sensor_id;sensor_type;location;lat;lon;timestamp;P1;durP1;ratioP1;P2;durP2;ratioP2
48211;SDS011;34000;48.772;9.162;2022-09-13T00:00:19;1.48;;;1.10;;
48211;SDS011;34000;48.772;9.162;2022-09-13T00:02:44;2.20;;;0.90;;
48211;SDS011;34000;48.772;9.162;2022-09-13T00:05:10;1.45;;;1.02;;
48211;SDS011;34000;48.772;9.162;2022-09-13T00:07:35;1.85;;;0.80;;
48211;SDS011;34000;48.772;9.162;2022-09-13T00:10:01;1.92;;;1.05;;
48211;SDS011;34000;48.772;9.162;2022-09-13T00:12:27;1.00;;;0.75;;
48211;SDS011;34000;48.772;9.162;2022-09-13T00:14:52;0.93;;;0.77;;
48211;SDS011;34000;48.772;9.162;2022-09-13T00:17:18;1.05;;;0.90;;
48211;SDS011;34000;48.772;9.162;2022-09-13T00:19:44;1.17;;;0.95;;
48211;SDS011;34000;48.772;9.162;2022-09-13T00:22:10;1.90;;;0.88;;
48211;SDS011;34000;48.772;9.162;2022-09-13T00:24:36;1.25;;;0.75;;
48211;SDS011;34000;48.772;9.162;2022-09-13T00:27:01;1.00;;;0.90;;
48211;SDS011;34000;48.772;9.162;2022-09-13T00:29:27;1.13;;;1.10;;
48211;SDS011;34000;48.772;9.162;2022-09-13T00:31:53;1.85;;;1.00;;
48211;SDS011;34000;48.772;9.162;2022-09-13T00:34:18;1.00;;;0.90;;
48211;SDS011;34000;48.772;9.162;2022-09-13T00:36:44;2.35;;;1.00;;
48211;SDS011;34000;48.772;9.162;2022-09-13T00:39:10;0.90;;;0.80;;
48211;SDS011;34000;48.772;9.162;2022-09-13T00:41:36;1.13;;;1.02;;
48211;SDS011;34000;48.772;9.162;2022-09-13T00:44:02;0.93;;;0.88;;
48211;SDS011;34000;48.772;9.162;2022-09-13T00:46:37;0.95;;;0.90;;
48211;SDS011;34000;48.772;9.162;2022-09-13T00:49:14;0.75;;;0.75;;
48211;SDS011;34000;48.772;9.162;2022-09-13T00:51:49;1.33;;;0.90;;
48211;SDS011;34000;48.772;9.162;2022-09-13T00:54:21;1.25;;;1.02;;
48211;SDS011;34000;48.772;9.162;2022-09-13T00:56:53;1.45;;;1.00;;
48211;SDS011;34000;48.772;9.162;2022-09-13T00:59:29;2.25;;;0.90;;
48211;SDS011;34000;48.772;9.162;2022-09-13T01:02:23;3.53;;;0.90;;
48211;SDS011;34000;48.772;9.162;2022-09-13T01:04:49;1.25;;;0.80;;
48211;SDS011;34000;48.772;9.162;2022-09-13T01:07:14;1.15;;;0.93;;
48211;SDS011;34000;48.772;9.162;2022-09-13T01:09:42;1.15;;;0.80;;
48211;SDS011;34000;48.772;9.162;2022-09-13T01:14:50;1.33;;;1.00;;
48211;SDS011;34000;48.772;9.162;2022-09-13T01:17:16;0.85;;;0.70;;
48211;SDS011;34000;48.772;9.162;2022-09-13T01:19:42;1.52;;;0.88;;
48211;SDS011;34000;48.772;9.162;2022-09-13T01:35:32;1.63;;;0.98;;
48211;SDS011;34000;48.772;9.162;2022-09-13T01:43:20;1.65;;;0.90;;
48211;SDS011;34000;48.772;9.162;2022-09-13T01:59:10;0.95;;;0.80;;
48211;SDS011;34000;48.772;9.162;2022-09-13T02:02:03;1.15;;;0.95;;
48211;SDS011;34000;48.772;9.162;2022-09-13T02:04:32;1.60;;;1.08;;
48211;SDS011;34000;48.772;9.162;2022-09-13T02:09:34;1.20;;;1.10;;
48211;SDS011;34000;48.772;9.162;2022-09-13T02:12:07;1.25;;;0.93;;
48211;SDS011;34000;48.772;9.162;2022-09-13T02:15:09;1.35;;;0.93;;
48211;SDS011;34000;48.772;9.162;2022-09-13T02:17:41;1.08;;;0.98;;
48211;SDS011;34000;48.772;9.162;2022-09-13T02:20:45;1.05;;;0.90;;
48211;SDS011;34000;48.772;9.162;2022-09-13T02:23:08;2.67;;;1.15;;
48211;SDS011;34000;48.772;9.162;2022-09-13T02:25:37;1.20;;;1.10;;
48211;SDS011;34000;48.772;9.162;2022-09-13T02:28:05;1.88;;;1.20;;
48211;SDS011;34000;48.772;9.162;2022-09-13T02:30:36;2.15;;;1.17;;
48211;SDS011;34000;48.772;9.162;2022-09-13T02:33:12;2.33;;;1.20;;
48211;SDS011;34000;48.772;9.162;2022-09-13T02:35:48;1.15;;;1.05;;
48211;SDS011;34000;48.772;9.162;2022-09-13T02:38:22;1.17;;;0.98;;
48211;SDS011;34000;48.772;9.162;2022-09-13T02:40:56;3.22;;;1.20;;
48211;SDS011;34000;48.772;9.162;2022-09-13T02:43:41;2.25;;;1.15;;
48211;SDS011;34000;48.772;9.162;2022-09-13T02:49:27;1.30;;;1.17;;
48211;SDS011;34000;48.772;9.162;2022-09-13T02:54:36;1.50;;;1.27;;
48211;SDS011;34000;48.772;9.162;2022-09-13T02:57:13;1.95;;;1.08;;
48211;SDS011;34000;48.772;9.162;2022-09-13T02:59:46;1.92;;;1.30;;
48211;SDS011;34000;48.772;9.162;2022-09-13T03:02:14;1.15;;;1.00;;
48211;SDS011;34000;48.772;9.162;2022-09-13T03:04:42;1.45;;;1.30;;
48211;SDS011;34000;48.772;9.162;2022-09-13T03:07:11;1.10;;;1.00;;
48211;SDS011;34000;48.772;9.162;2022-09-13T03:09:45;1.00;;;1.00;;
48211;SDS011;34000;48.772;9.162;2022-09-13T03:12:37;1.35;;;1.10;;
48211;SDS011;34000;48.772;9.162;2022-09-13T03:18:04;1.42;;;1.20;;
48211;SDS011;34000;48.772;9.162;2022-09-13T03:26:51;2.20;;;1.23;;
48211;SDS011;34000;48.772;9.162;2022-09-13T03:38:08;1.20;;;1.10;;
48211;SDS011;34000;48.772;9.162;2022-09-13T03:41:06;1.38;;;1.25;;
48211;SDS011;34000;48.772;9.162;2022-09-13T03:46:09;1.15;;;0.98;;
48211;SDS011;34000;48.772;9.162;2022-09-13T03:48:39;2.20;;;1.33;;
48211;SDS011;34000;48.772;9.162;2022-09-13T03:51:07;1.92;;;1.38;;
48211;SDS011;34000;48.772;9.162;2022-09-13T03:53:34;3.75;;;1.98;;
48211;SDS011;34000;48.772;9.162;2022-09-13T03:56:15;3.20;;;1.45;;
48211;SDS011;34000;48.772;9.162;2022-09-13T03:58:43;1.48;;;1.23;;
48211;SDS011;34000;48.772;9.162;2022-09-13T04:01:10;1.50;;;1.25;;
48211;SDS011;34000;48.772;9.162;2022-09-13T04:03:36;2.17;;;1.17;;
48211;SDS011;34000;48.772;9.162;2022-09-13T04:06:03;1.70;;;1.20;;
48211;SDS011;34000;48.772;9.162;2022-09-13T04:08:30;3.05;;;1.10;;
48211;SDS011;34000;48.772;9.162;2022-09-13T04:10:58;2.47;;;1.00;;
48211;SDS011;34000;48.772;9.162;2022-09-13T04:13:24;1.58;;;1.10;;
48211;SDS011;34000;48.772;9.162;2022-09-13T04:15:50;2.20;;;1.30;;
48211;SDS011;34000;48.772;9.162;2022-09-13T04:18:16;2.83;;;1.95;;
48211;SDS011;34000;48.772;9.162;2022-09-13T04:20:42;1.63;;;1.30;;
48211;SDS011;34000;48.772;9.162;2022-09-13T04:23:08;1.80;;;1.40;;
48211;SDS011;34000;48.772;9.162;2022-09-13T04:25:36;1.27;;;1.15;;
48211;SDS011;34000;48.772;9.162;2022-09-13T04:28:03;1.52;;;1.13;;
48211;SDS011;34000;48.772;9.162;2022-09-13T04:30:28;1.80;;;1.30;;
48211;SDS011;34000;48.772;9.162;2022-09-13T04:32:54;1.58;;;1.48;;
48211;SDS011;34000;48.772;9.162;2022-09-13T04:35:20;2.13;;;1.25;;
48211;SDS011;34000;48.772;9.162;2022-09-13T04:37:46;1.58;;;1.25;;
48211;SDS011;34000;48.772;9.162;2022-09-13T04:40:12;1.20;;;1.05;;
48211;SDS011;34000;48.772;9.162;2022-09-13T04:42:38;2.85;;;1.30;;
48211;SDS011;34000;48.772;9.162;2022-09-13T04:45:04;3.00;;;1.30;;
48211;SDS011;34000;48.772;9.162;2022-09-13T04:47:30;2.92;;;1.63;;
48211;SDS011;34000;48.772;9.162;2022-09-13T04:49:56;2.55;;;1.23;;
48211;SDS011;34000;48.772;9.162;2022-09-13T04:52:22;1.45;;;1.35;;
48211;SDS011;34000;48.772;9.162;2022-09-13T04:54:47;1.50;;;1.40;;
48211;SDS011;34000;48.772;9.162;2022-09-13T04:57:13;2.30;;;1.33;;
48211;SDS011;34000;48.772;9.162;2022-09-13T04:59:40;3.80;;;1.30;;
48211;SDS011;34000;48.772;9.162;2022-09-13T05:02:06;1.75;;;1.50;;
48211;SDS011;34000;48.772;9.162;2022-09-13T05:04:32;1.60;;;1.40;;
48211;SDS011;34000;48.772;9.162;2022-09-13T05:06:57;2.88;;;1.35;;
48211;SDS011;34000;48.772;9.162;2022-09-13T05:09:23;2.63;;;1.55;;
48211;SDS011;34000;48.772;9.162;2022-09-13T05:11:49;3.15;;;1.60;;
48211;SDS011;34000;48.772;9.162;2022-09-13T05:14:14;1.35;;;1.23;;
48211;SDS011;34000;48.772;9.162;2022-09-13T05:16:40;4.93;;;1.70;;
48211;SDS011;34000;48.772;9.162;2022-09-13T05:19:06;3.30;;;1.33;;
48211;SDS011;34000;48.772;9.162;2022-09-13T05:21:32;1.50;;;1.20;;
48211;SDS011;34000;48.772;9.162;2022-09-13T05:23:58;2.20;;;1.55;;
48211;SDS011;34000;48.772;9.162;2022-09-13T05:26:25;1.70;;;1.38;;
48211;SDS011;34000;48.772;9.162;2022-09-13T05:28:55;2.42;;;1.45;;
48211;SDS011;34000;48.772;9.162;2022-09-13T05:31:23;2.28;;;1.50;;
48211;SDS011;34000;48.772;9.162;2022-09-13T05:33:57;3.20;;;1.52;;
48211;SDS011;34000;48.772;9.162;2022-09-13T05:36:28;7.68;;;4.30;;
48211;SDS011;34000;48.772;9.162;2022-09-13T05:38:54;4.03;;;2.30;;
48211;SDS011;34000;48.772;9.162;2022-09-13T05:41:20;4.40;;;1.90;;
48211;SDS011;34000;48.772;9.162;2022-09-13T05:43:45;3.10;;;1.77;;
48211;SDS011;34000;48.772;9.162;2022-09-13T05:46:12;4.13;;;2.88;;
48211;SDS011;34000;48.772;9.162;2022-09-13T05:48:39;3.13;;;2.10;;
48211;SDS011;34000;48.772;9.162;2022-09-13T05:51:13;4.25;;;2.25;;
48211;SDS011;34000;48.772;9.162;2022-09-13T05:53:44;7.55;;;4.57;;
48211;SDS011;34000;48.772;9.162;2022-09-13T05:56:12;9.13;;;5.55;;
48211;SDS011;34000;48.772;9.162;2022-09-13T05:58:43;3.07;;;1.90;;
48211;SDS011;34000;48.772;9.162;2022-09-13T06:01:10;4.07;;;2.10;;
48211;SDS011;34000;48.772;9.162;2022-09-13T06:03:37;3.33;;;2.17;;
48211;SDS011;34000;48.772;9.162;2022-09-13T06:06:03;2.85;;;1.80;;
48211;SDS011;34000;48.772;9.162;2022-09-13T06:08:30;2.75;;;1.65;;
48211;SDS011;34000;48.772;9.162;2022-09-13T06:11:04;2.67;;;1.63;;
48211;SDS011;34000;48.772;9.162;2022-09-13T06:13:32;2.85;;;1.90;;
48211;SDS011;34000;48.772;9.162;2022-09-13T06:15:59;1.92;;;1.55;;
48211;SDS011;34000;48.772;9.162;2022-09-13T06:18:25;3.47;;;2.75;;
48211;SDS011;34000;48.772;9.162;2022-09-13T06:20:58;1.60;;;1.50;;
48211;SDS011;34000;48.772;9.162;2022-09-13T06:23:26;1.95;;;1.65;;
48211;SDS011;34000;48.772;9.162;2022-09-13T06:26:05;2.72;;;2.00;;
48211;SDS011;34000;48.772;9.162;2022-09-13T06:28:33;2.60;;;1.58;;
48211;SDS011;34000;48.772;9.162;2022-09-13T06:31:03;2.50;;;1.73;;
48211;SDS011;34000;48.772;9.162;2022-09-13T06:33:35;3.55;;;1.70;;
48211;SDS011;34000;48.772;9.162;2022-09-13T06:36:03;2.08;;;1.58;;
48211;SDS011;34000;48.772;9.162;2022-09-13T06:38:30;4.32;;;1.83;;
48211;SDS011;34000;48.772;9.162;2022-09-13T06:41:15;2.88;;;1.60;;
48211;SDS011;34000;48.772;9.162;2022-09-13T06:43:46;2.63;;;1.90;;
48211;SDS011;34000;48.772;9.162;2022-09-13T06:46:15;1.75;;;1.60;;
48211;SDS011;34000;48.772;9.162;2022-09-13T06:48:43;2.67;;;2.00;;
48211;SDS011;34000;48.772;9.162;2022-09-13T06:51:10;2.58;;;1.70;;
48211;SDS011;34000;48.772;9.162;2022-09-13T06:53:39;4.45;;;2.60;;
48211;SDS011;34000;48.772;9.162;2022-09-13T06:58:36;3.53;;;2.20;;
48211;SDS011;34000;48.772;9.162;2022-09-13T07:03:52;4.40;;;1.77;;
48211;SDS011;34000;48.772;9.162;2022-09-13T07:06:22;1.50;;;1.38;;
48211;SDS011;34000;48.772;9.162;2022-09-13T07:08:51;2.33;;;1.40;;
48211;SDS011;34000;48.772;9.162;2022-09-13T07:11:21;1.50;;;1.40;;
48211;SDS011;34000;48.772;9.162;2022-09-13T07:13:48;2.17;;;1.40;;
48211;SDS011;34000;48.772;9.162;2022-09-13T07:16:15;1.77;;;1.52;;
48211;SDS011;34000;48.772;9.162;2022-09-13T07:18:42;1.63;;;1.20;;
48211;SDS011;34000;48.772;9.162;2022-09-13T07:21:08;1.95;;;1.42;;
48211;SDS011;34000;48.772;9.162;2022-09-13T07:23:36;1.40;;;1.30;;
48211;SDS011;34000;48.772;9.162;2022-09-13T07:26:03;1.95;;;1.38;;
48211;SDS011;34000;48.772;9.162;2022-09-13T07:28:31;2.65;;;1.90;;
48211;SDS011;34000;48.772;9.162;2022-09-13T07:31:06;5.60;;;3.72;;
48211;SDS011;34000;48.772;9.162;2022-09-13T07:33:37;4.25;;;2.95;;
48211;SDS011;34000;48.772;9.162;2022-09-13T07:36:04;2.45;;;1.63;;
48211;SDS011;34000;48.772;9.162;2022-09-13T07:38:48;3.60;;;2.80;;
48211;SDS011;34000;48.772;9.162;2022-09-13T07:41:15;3.70;;;1.95;;
48211;SDS011;34000;48.772;9.162;2022-09-13T07:43:43;3.78;;;1.92;;
48211;SDS011;34000;48.772;9.162;2022-09-13T07:46:09;3.13;;;1.45;;
48211;SDS011;34000;48.772;9.162;2022-09-13T07:48:46;3.00;;;1.65;;
48211;SDS011;34000;48.772;9.162;2022-09-13T07:51:16;2.33;;;1.40;;
48211;SDS011;34000;48.772;9.162;2022-09-13T07:53:47;2.72;;;1.83;;
48211;SDS011;34000;48.772;9.162;2022-09-13T07:56:20;1.92;;;1.27;;
48211;SDS011;34000;48.772;9.162;2022-09-13T07:58:47;3.47;;;2.50;;
48211;SDS011;34000;48.772;9.162;2022-09-13T08:01:15;6.88;;;1.83;;
48211;SDS011;34000;48.772;9.162;2022-09-13T08:03:41;1.70;;;1.40;;
48211;SDS011;34000;48.772;9.162;2022-09-13T08:06:07;2.67;;;1.42;;
48211;SDS011;34000;48.772;9.162;2022-09-13T08:08:33;1.52;;;1.42;;
48211;SDS011;34000;48.772;9.162;2022-09-13T08:11:00;1.80;;;1.27;;
48211;SDS011;34000;48.772;9.162;2022-09-13T08:13:27;2.40;;;1.23;;
48211;SDS011;34000;48.772;9.162;2022-09-13T08:15:53;2.53;;;1.60;;
48211;SDS011;34000;48.772;9.162;2022-09-13T08:18:19;4.57;;;2.20;;
48211;SDS011;34000;48.772;9.162;2022-09-13T08:20:45;7.10;;;3.58;;
48211;SDS011;34000;48.772;9.162;2022-09-13T08:23:11;4.95;;;2.45;;
48211;SDS011;34000;48.772;9.162;2022-09-13T08:25:37;3.42;;;2.15;;
48211;SDS011;34000;48.772;9.162;2022-09-13T08:28:07;6.00;;;2.25;;
48211;SDS011;34000;48.772;9.162;2022-09-13T08:30:35;3.10;;;1.98;;
48211;SDS011;34000;48.772;9.162;2022-09-13T08:33:04;2.17;;;1.50;;
48211;SDS011;34000;48.772;9.162;2022-09-13T08:35:31;4.45;;;2.00;;
48211;SDS011;34000;48.772;9.162;2022-09-13T08:37:57;2.70;;;1.85;;
48211;SDS011;34000;48.772;9.162;2022-09-13T08:40:24;3.55;;;2.20;;
48211;SDS011;34000;48.772;9.162;2022-09-13T08:45:26;2.47;;;2.17;;
48211;SDS011;34000;48.772;9.162;2022-09-13T08:47:55;7.72;;;3.80;;
48211;SDS011;34000;48.772;9.162;2022-09-13T08:50:27;2.85;;;1.90;;
48211;SDS011;34000;48.772;9.162;2022-09-13T08:55:50;1.77;;;1.52;;
48211;SDS011;34000;48.772;9.162;2022-09-13T09:01:13;3.83;;;1.95;;
48211;SDS011;34000;48.772;9.162;2022-09-13T09:03:45;5.40;;;1.77;;
48211;SDS011;34000;48.772;9.162;2022-09-13T09:06:13;3.92;;;2.08;;
48211;SDS011;34000;48.772;9.162;2022-09-13T09:08:45;5.20;;;3.90;;
48211;SDS011;34000;48.772;9.162;2022-09-13T09:11:33;4.07;;;2.20;;
48211;SDS011;34000;48.772;9.162;2022-09-13T09:16:36;2.67;;;1.60;;
48211;SDS011;34000;48.772;9.162;2022-09-13T09:19:21;6.60;;;1.98;;
48211;SDS011;34000;48.772;9.162;2022-09-13T09:21:54;3.03;;;1.73;;
48211;SDS011;34000;48.772;9.162;2022-09-13T09:24:22;12.85;;;7.38;;
48211;SDS011;34000;48.772;9.162;2022-09-13T09:26:49;7.22;;;5.43;;
48211;SDS011;34000;48.772;9.162;2022-09-13T09:31:53;4.78;;;3.47;;
48211;SDS011;34000;48.772;9.162;2022-09-13T09:34:38;6.40;;;4.00;;
48211;SDS011;34000;48.772;9.162;2022-09-13T09:37:21;12.07;;;8.98;;
48211;SDS011;34000;48.772;9.162;2022-09-13T09:39:52;8.32;;;6.85;;
48211;SDS011;34000;48.772;9.162;2022-09-13T09:42:25;8.82;;;6.57;;
48211;SDS011;34000;48.772;9.162;2022-09-13T09:45:01;5.18;;;2.20;;
48211;SDS011;34000;48.772;9.162;2022-09-13T09:47:41;3.97;;;2.08;;
48211;SDS011;34000;48.772;9.162;2022-09-13T09:50:10;3.47;;;1.50;;
48211;SDS011;34000;48.772;9.162;2022-09-13T09:52:44;4.40;;;1.58;;
48211;SDS011;34000;48.772;9.162;2022-09-13T09:58:12;4.20;;;1.60;;
48211;SDS011;34000;48.772;9.162;2022-09-13T10:03:18;3.25;;;1.27;;
48211;SDS011;34000;48.772;9.162;2022-09-13T10:05:48;2.95;;;1.30;;
48211;SDS011;34000;48.772;9.162;2022-09-13T10:08:24;2.67;;;1.38;;
48211;SDS011;34000;48.772;9.162;2022-09-13T10:10:55;2.65;;;1.30;;
48211;SDS011;34000;48.772;9.162;2022-09-13T10:13:23;1.40;;;1.10;;
48211;SDS011;34000;48.772;9.162;2022-09-13T10:18:25;4.30;;;1.30;;
48211;SDS011;34000;48.772;9.162;2022-09-13T10:21:37;7.32;;;1.83;;
48211;SDS011;34000;48.772;9.162;2022-09-13T10:23:44;2.17;;;1.65;;
48211;SDS011;34000;48.772;9.162;2022-09-13T10:26:21;2.45;;;1.55;;
48211;SDS011;34000;48.772;9.162;2022-09-13T10:29:04;5.05;;;1.65;;
48211;SDS011;34000;48.772;9.162;2022-09-13T10:31:36;3.22;;;1.25;;
48211;SDS011;34000;48.772;9.162;2022-09-13T10:34:06;2.97;;;1.30;;
48211;SDS011;34000;48.772;9.162;2022-09-13T10:36:36;2.72;;;1.60;;
48211;SDS011;34000;48.772;9.162;2022-09-13T10:39:10;2.22;;;1.40;;
48211;SDS011;34000;48.772;9.162;2022-09-13T10:41:41;3.28;;;1.30;;
48211;SDS011;34000;48.772;9.162;2022-09-13T10:47:04;4.00;;;2.05;;
48211;SDS011;34000;48.772;9.162;2022-09-13T10:49:40;1.35;;;1.20;;
48211;SDS011;34000;48.772;9.162;2022-09-13T10:52:27;1.15;;;1.05;;
48211;SDS011;34000;48.772;9.162;2022-09-13T10:57:44;1.63;;;1.50;;
48211;SDS011;34000;48.772;9.162;2022-09-13T11:00:11;0.88;;;0.85;;
48211;SDS011;34000;48.772;9.162;2022-09-13T11:06:16;1.40;;;0.90;;
48211;SDS011;34000;48.772;9.162;2022-09-13T11:30:36;3.67;;;2.05;;
48211;SDS011;34000;48.772;9.162;2022-09-13T11:47:18;8.15;;;6.65;;
48211;SDS011;34000;48.772;9.162;2022-09-13T11:55:21;5.00;;;3.60;;
48211;SDS011;34000;48.772;9.162;2022-09-13T11:57:48;3.90;;;1.10;;
48211;SDS011;34000;48.772;9.162;2022-09-13T12:00:24;4.53;;;1.00;;
48211;SDS011;34000;48.772;9.162;2022-09-13T12:03:20;0.95;;;0.85;;
48211;SDS011;34000;48.772;9.162;2022-09-13T12:05:59;3.05;;;0.80;;
48211;SDS011;34000;48.772;9.162;2022-09-13T12:08:31;1.05;;;0.90;;
48211;SDS011;34000;48.772;9.162;2022-09-13T12:11:04;0.85;;;0.70;;
48211;SDS011;34000;48.772;9.162;2022-09-13T12:13:40;1.52;;;0.80;;
48211;SDS011;34000;48.772;9.162;2022-09-13T12:16:22;1.23;;;0.60;;
48211;SDS011;34000;48.772;9.162;2022-09-13T12:21:40;3.40;;;0.90;;
48211;SDS011;34000;48.772;9.162;2022-09-13T12:29:28;2.45;;;0.85;;
48211;SDS011;34000;48.772;9.162;2022-09-13T12:32:04;1.90;;;0.88;;
48211;SDS011;34000;48.772;9.162;2022-09-13T12:34:56;1.33;;;1.10;;
48211;SDS011;34000;48.772;9.162;2022-09-13T12:40:13;1.65;;;0.80;;
48211;SDS011;34000;48.772;9.162;2022-09-13T12:46:00;1.83;;;0.88;;
48211;SDS011;34000;48.772;9.162;2022-09-13T12:54:23;1.92;;;0.82;;
48211;SDS011;34000;48.772;9.162;2022-09-13T13:03:20;1.13;;;0.80;;
48211;SDS011;34000;48.772;9.162;2022-09-13T13:07:56;1.50;;;1.02;;
48211;SDS011;34000;48.772;9.162;2022-09-13T13:10:32;1.30;;;0.80;;
48211;SDS011;34000;48.772;9.162;2022-09-13T13:29:24;0.85;;;0.82;;
48211;SDS011;34000;48.772;9.162;2022-09-13T13:36:47;2.20;;;1.15;;
48211;SDS011;34000;48.772;9.162;2022-09-13T13:46:44;1.85;;;1.17;;
48211;SDS011;34000;48.772;9.162;2022-09-13T14:00:03;1.10;;;0.90;;
48211;SDS011;34000;48.772;9.162;2022-09-13T14:19:17;4.45;;;2.17;;
48211;SDS011;34000;48.772;9.162;2022-09-13T14:22:04;2.30;;;1.02;;
48211;SDS011;34000;48.772;9.162;2022-09-13T14:24:37;1.92;;;1.00;;
48211;SDS011;34000;48.772;9.162;2022-09-13T14:27:09;1.38;;;1.20;;
48211;SDS011;34000;48.772;9.162;2022-09-13T14:29:43;0.73;;;0.70;;
48211;SDS011;34000;48.772;9.162;2022-09-13T14:32:12;1.00;;;0.88;;
48211;SDS011;34000;48.772;9.162;2022-09-13T14:34:49;1.70;;;1.05;;
48211;SDS011;34000;48.772;9.162;2022-09-13T14:37:30;1.10;;;0.70;;
48211;SDS011;34000;48.772;9.162;2022-09-13T14:40:18;1.10;;;0.70;;
48211;SDS011;34000;48.772;9.162;2022-09-13T14:42:47;1.23;;;1.00;;
48211;SDS011;34000;48.772;9.162;2022-09-13T14:50:22;1.52;;;0.60;;
48211;SDS011;34000;48.772;9.162;2022-09-13T14:52:56;2.08;;;1.00;;
48211;SDS011;34000;48.772;9.162;2022-09-13T14:55:25;2.22;;;1.20;;
48211;SDS011;34000;48.772;9.162;2022-09-13T14:57:59;3.25;;;1.35;;
48211;SDS011;34000;48.772;9.162;2022-09-13T15:00:28;4.80;;;1.45;;
48211;SDS011;34000;48.772;9.162;2022-09-13T15:02:58;1.13;;;0.80;;
48211;SDS011;34000;48.772;9.162;2022-09-13T15:05:26;4.28;;;1.95;;
48211;SDS011;34000;48.772;9.162;2022-09-13T15:07:53;0.70;;;0.65;;
48211;SDS011;34000;48.772;9.162;2022-09-13T15:10:23;1.73;;;1.30;;
48211;SDS011;34000;48.772;9.162;2022-09-13T15:17:57;3.60;;;2.30;;
48211;SDS011;34000;48.772;9.162;2022-09-13T15:20:23;4.82;;;2.70;;
48211;SDS011;34000;48.772;9.162;2022-09-13T15:22:51;4.70;;;3.25;;
48211;SDS011;34000;48.772;9.162;2022-09-13T15:25:25;2.95;;;1.92;;
48211;SDS011;34000;48.772;9.162;2022-09-13T15:27:53;4.70;;;3.10;;
48211;SDS011;34000;48.772;9.162;2022-09-13T15:36:36;3.20;;;0.77;;
48211;SDS011;34000;48.772;9.162;2022-09-13T15:41:27;1.15;;;0.80;;
48211;SDS011;34000;48.772;9.162;2022-09-13T15:44:04;1.27;;;0.70;;
48211;SDS011;34000;48.772;9.162;2022-09-13T15:46:31;1.67;;;1.00;;
48211;SDS011;34000;48.772;9.162;2022-09-13T15:49:02;1.63;;;0.98;;
48211;SDS011;34000;48.772;9.162;2022-09-13T15:51:29;1.00;;;0.80;;
48211;SDS011;34000;48.772;9.162;2022-09-13T15:53:55;1.33;;;0.80;;
48211;SDS011;34000;48.772;9.162;2022-09-13T15:56:41;0.93;;;0.82;;
48211;SDS011;34000;48.772;9.162;2022-09-13T15:59:15;2.75;;;1.08;;
48211;SDS011;34000;48.772;9.162;2022-09-13T16:01:43;1.38;;;1.02;;
48211;SDS011;34000;48.772;9.162;2022-09-13T16:04:09;1.52;;;0.85;;
48211;SDS011;34000;48.772;9.162;2022-09-13T16:06:35;4.18;;;1.48;;
48211;SDS011;34000;48.772;9.162;2022-09-13T16:09:06;1.60;;;1.20;;
48211;SDS011;34000;48.772;9.162;2022-09-13T16:11:40;8.07;;;3.45;;
48211;SDS011;34000;48.772;9.162;2022-09-13T16:14:05;3.53;;;2.05;;
48211;SDS011;34000;48.772;9.162;2022-09-13T16:16:31;2.70;;;1.73;;
48211;SDS011;34000;48.772;9.162;2022-09-13T16:18:56;2.97;;;1.40;;
48211;SDS011;34000;48.772;9.162;2022-09-13T16:21:22;2.65;;;1.42;;
48211;SDS011;34000;48.772;9.162;2022-09-13T16:23:47;4.65;;;2.08;;
48211;SDS011;34000;48.772;9.162;2022-09-13T16:26:13;2.42;;;1.30;;
48211;SDS011;34000;48.772;9.162;2022-09-13T16:28:39;2.60;;;1.70;;
48211;SDS011;34000;48.772;9.162;2022-09-13T16:31:05;1.42;;;1.10;;
48211;SDS011;34000;48.772;9.162;2022-09-13T16:33:30;2.60;;;1.30;;
48211;SDS011;34000;48.772;9.162;2022-09-13T16:35:56;3.72;;;1.27;;
48211;SDS011;34000;48.772;9.162;2022-09-13T16:38:22;3.65;;;1.45;;
48211;SDS011;34000;48.772;9.162;2022-09-13T16:40:47;2.88;;;1.63;;
48211;SDS011;34000;48.772;9.162;2022-09-13T16:43:13;3.03;;;1.60;;
48211;SDS011;34000;48.772;9.162;2022-09-13T16:45:39;2.90;;;1.58;;
48211;SDS011;34000;48.772;9.162;2022-09-13T16:48:05;2.25;;;1.17;;
48211;SDS011;34000;48.772;9.162;2022-09-13T16:50:31;4.50;;;2.42;;
48211;SDS011;34000;48.772;9.162;2022-09-13T16:52:57;4.47;;;2.25;;
48211;SDS011;34000;48.772;9.162;2022-09-13T16:55:23;2.47;;;1.65;;
48211;SDS011;34000;48.772;9.162;2022-09-13T16:57:50;4.78;;;2.42;;
48211;SDS011;34000;48.772;9.162;2022-09-13T17:00:16;3.17;;;1.50;;
48211;SDS011;34000;48.772;9.162;2022-09-13T17:02:44;4.53;;;1.83;;
48211;SDS011;34000;48.772;9.162;2022-09-13T17:05:10;5.00;;;2.20;;
48211;SDS011;34000;48.772;9.162;2022-09-13T17:07:36;9.20;;;3.60;;
48211;SDS011;34000;48.772;9.162;2022-09-13T17:10:06;6.55;;;3.38;;
48211;SDS011;34000;48.772;9.162;2022-09-13T17:12:32;1.80;;;1.50;;
48211;SDS011;34000;48.772;9.162;2022-09-13T17:14:58;4.53;;;1.52;;
48211;SDS011;34000;48.772;9.162;2022-09-13T17:17:24;2.30;;;1.60;;
48211;SDS011;34000;48.772;9.162;2022-09-13T17:19:50;5.45;;;2.92;;
48211;SDS011;34000;48.772;9.162;2022-09-13T17:22:16;6.75;;;3.00;;
48211;SDS011;34000;48.772;9.162;2022-09-13T17:24:42;7.60;;;2.95;;
48211;SDS011;34000;48.772;9.162;2022-09-13T17:27:08;4.32;;;2.25;;
48211;SDS011;34000;48.772;9.162;2022-09-13T17:29:34;4.50;;;2.08;;
48211;SDS011;34000;48.772;9.162;2022-09-13T17:32:01;2.85;;;1.60;;
48211;SDS011;34000;48.772;9.162;2022-09-13T17:34:29;5.03;;;2.33;;
48211;SDS011;34000;48.772;9.162;2022-09-13T17:36:58;2.42;;;1.95;;
48211;SDS011;34000;48.772;9.162;2022-09-13T17:39:24;5.10;;;2.30;;
48211;SDS011;34000;48.772;9.162;2022-09-13T17:41:50;3.00;;;1.83;;
48211;SDS011;34000;48.772;9.162;2022-09-13T17:44:16;4.03;;;2.00;;
48211;SDS011;34000;48.772;9.162;2022-09-13T17:46:42;4.65;;;1.90;;
48211;SDS011;34000;48.772;9.162;2022-09-13T17:49:08;6.32;;;3.40;;
48211;SDS011;34000;48.772;9.162;2022-09-13T17:51:33;6.75;;;3.45;;
48211;SDS011;34000;48.772;9.162;2022-09-13T17:54:03;19.95;;;9.07;;
48211;SDS011;34000;48.772;9.162;2022-09-13T17:56:34;25.63;;;10.90;;
48211;SDS011;34000;48.772;9.162;2022-09-13T18:01:37;5.35;;;2.38;;
48211;SDS011;34000;48.772;9.162;2022-09-13T18:04:04;4.93;;;2.63;;
48211;SDS011;34000;48.772;9.162;2022-09-13T18:06:31;6.22;;;3.72;;
48211;SDS011;34000;48.772;9.162;2022-09-13T18:08:57;8.23;;;4.68;;
48211;SDS011;34000;48.772;9.162;2022-09-13T18:11:23;3.97;;;2.42;;
48211;SDS011;34000;48.772;9.162;2022-09-13T18:13:49;8.73;;;4.30;;
48211;SDS011;34000;48.772;9.162;2022-09-13T18:16:17;5.22;;;2.97;;
48211;SDS011;34000;48.772;9.162;2022-09-13T18:18:44;8.82;;;4.05;;
48211;SDS011;34000;48.772;9.162;2022-09-13T18:21:11;7.32;;;3.40;;
48211;SDS011;34000;48.772;9.162;2022-09-13T18:23:45;17.83;;;7.43;;
48211;SDS011;34000;48.772;9.162;2022-09-13T18:26:12;5.25;;;3.05;;
48211;SDS011;34000;48.772;9.162;2022-09-13T18:28:40;24.92;;;10.68;;
48211;SDS011;34000;48.772;9.162;2022-09-13T18:31:11;9.88;;;4.55;;
48211;SDS011;34000;48.772;9.162;2022-09-13T18:33:38;7.75;;;3.03;;
48211;SDS011;34000;48.772;9.162;2022-09-13T18:36:05;11.88;;;4.78;;
48211;SDS011;34000;48.772;9.162;2022-09-13T18:38:33;2.65;;;1.83;;
48211;SDS011;34000;48.772;9.162;2022-09-13T18:43:29;4.85;;;2.13;;
48211;SDS011;34000;48.772;9.162;2022-09-13T18:45:56;7.18;;;1.60;;
48211;SDS011;34000;48.772;9.162;2022-09-13T18:48:23;6.28;;;2.60;;
48211;SDS011;34000;48.772;9.162;2022-09-13T18:50:50;3.25;;;1.98;;
48211;SDS011;34000;48.772;9.162;2022-09-13T18:53:16;3.30;;;1.75;;
48211;SDS011;34000;48.772;9.162;2022-09-13T18:55:42;2.72;;;1.63;;
48211;SDS011;34000;48.772;9.162;2022-09-13T18:58:07;3.38;;;1.77;;
48211;SDS011;34000;48.772;9.162;2022-09-13T19:00:33;2.60;;;1.50;;
48211;SDS011;34000;48.772;9.162;2022-09-13T19:02:59;2.45;;;1.70;;
48211;SDS011;34000;48.772;9.162;2022-09-13T19:05:26;2.83;;;1.70;;
48211;SDS011;34000;48.772;9.162;2022-09-13T19:07:52;3.67;;;1.52;;
48211;SDS011;34000;48.772;9.162;2022-09-13T19:10:19;3.40;;;1.70;;
48211;SDS011;34000;48.772;9.162;2022-09-13T19:12:45;4.00;;;2.17;;